Time;durP1;ratioP1;P1;durP2;ratioP2;P2;SDS_P1;SDS_P2;PMS_P1;PMS_P2;Temp;Humidity;BMP_temperature;BMP_pressure;BME280_temperature;BME280_humidity;BME280_pressure;Samples;Min_cycle;Max_cycle;Signal;HPM_P1;HPM_P2
2023/12/14 00:01:42;;;;;;;0.35;0.35;;;;;;;5.53;100.00;100714.53;5116058;28;20132;-46
2023/12/14 00:04:07;;;;;;;0.40;0.40;;;;;;;5.50;100.00;100724.63;5115038;28;20035;-47
2023/12/14 00:06:33;;;;;;;0.40;0.40;;;;;;;5.48;100.00;100726.22;5115640;28;20419;-49
2023/12/14 00:08:58;;;;;;;0.32;0.32;;;;;;;5.44;100.00;100735.41;5115813;28;20059;-46
2023/12/14 00:11:23;;;;;;;0.40;0.40;;;;;;;5.43;100.00;100740.47;5114614;28;20420;-48
2023/12/14 00:13:49;;;;;;;0.28;0.28;;;;;;;5.41;100.00;100740.38;5115960;28;20076;-47
2023/12/14 00:16:14;;;;;;;0.30;0.30;;;;;;;5.41;100.00;100749.72;5115256;28;20032;-48
2023/12/14 00:18:39;;;;;;;0.30;0.30;;;;;;;5.40;100.00;100753.97;5114708;28;20087;-50
2023/12/14 00:21:05;;;;;;;0.35;0.35;;;;;;;5.40;100.00;100756.53;5115349;28;20020;-48
2023/12/14 00:23:30;;;;;;;0.30;0.30;;;;;;;5.39;100.00;100759.88;5115085;28;20042;-44
2023/12/14 00:25:56;;;;;;;0.30;0.30;;;;;;;5.36;100.00;100771.63;5114716;28;20023;-47
2023/12/14 00:28:22;;;;;;;0.30;0.30;;;;;;;5.29;100.00;100780.66;5114741;28;20015;-46
2023/12/14 00:30:47;;;;;;;0.30;0.30;;;;;;;5.23;100.00;100788.91;5114990;28;20027;-49
2023/12/14 00:33:12;;;;;;;0.30;0.30;;;;;;;5.19;100.00;100789.56;5114418;28;20026;-50
2023/12/14 00:35:38;;;;;;;0.40;0.40;;;;;;;5.16;100.00;100799.59;5115107;28;20046;-46
2023/12/14 00:38:03;;;;;;;0.30;0.30;;;;;;;5.13;100.00;100807.13;5115089;28;20027;-49
2023/12/14 00:40:28;;;;;;;0.30;0.30;;;;;;;5.07;100.00;100812.81;5114444;28;20793;-47
2023/12/14 00:42:53;;;;;;;0.30;0.30;;;;;;;5.03;100.00;100817.69;5114945;28;20032;-49
2023/12/14 00:45:19;;;;;;;0.40;0.40;;;;;;;4.99;100.00;100820.88;5114594;28;20467;-46
2023/12/14 00:47:44;;;;;;;0.30;0.30;;;;;;;4.97;100.00;100832.69;5114361;28;20028;-47
2023/12/14 00:50:09;;;;;;;0.40;0.40;;;;;;;4.90;100.00;100829.81;5114194;28;20550;-46
2023/12/14 00:52:35;;;;;;;0.30;0.30;;;;;;;4.86;100.00;100835.56;5113258;28;20026;-46
2023/12/14 00:55:00;;;;;;;0.30;0.30;;;;;;;4.80;100.00;100837.78;5115158;28;20022;-48
2023/12/14 00:57:25;;;;;;;0.30;0.30;;;;;;;4.75;100.00;100837.56;5114567;28;20027;-44
2023/12/14 00:59:51;;;;;;;0.30;0.30;;;;;;;4.73;100.00;100845.94;5113225;28;20110;-46
2023/12/14 01:02:16;;;;;;;0.40;0.40;;;;;;;4.71;100.00;100852.63;5114382;28;20103;-48
2023/12/14 01:04:42;;;;;;;0.35;0.35;;;;;;;4.69;100.00;100852.53;5114524;28;20019;-45
2023/12/14 01:07:07;;;;;;;0.40;0.40;;;;;;;4.65;100.00;100858.28;5113595;28;20036;-50
2023/12/14 01:09:33;;;;;;;0.30;0.30;;;;;;;4.61;100.00;100858.91;5114174;28;20059;-46
2023/12/14 01:11:58;;;;;;;0.30;0.30;;;;;;;4.56;100.00;100861.22;5114506;28;20111;-46
2023/12/14 01:14:23;;;;;;;0.30;0.30;;;;;;;4.54;100.00;100862.78;5113390;28;20027;-48
2023/12/14 01:16:49;;;;;;;0.25;0.25;;;;;;;4.52;100.00;100866.94;5114519;28;20035;-47
2023/12/14 01:19:14;;;;;;;0.30;0.30;;;;;;;4.48;100.00;100865.03;5114184;28;20083;-49
2023/12/14 01:21:39;;;;;;;0.30;0.30;;;;;;;4.43;100.00;100879.22;5113480;28;20031;-48
2023/12/14 01:24:05;;;;;;;0.30;0.30;;;;;;;4.39;100.00;100883.25;5114463;28;20494;-47
2023/12/14 01:26:30;;;;;;;0.30;0.30;;;;;;;4.37;100.00;100884.84;5114329;28;20027;-48
2023/12/14 01:28:56;;;;;;;0.40;0.40;;;;;;;4.35;100.00;100908.50;5113425;28;20031;-44
2023/12/14 01:31:24;;;;;;;0.40;0.40;;;;;;;4.34;100.00;100904.19;5113769;28;20463;-46
2023/12/14 01:33:49;;;;;;;0.30;0.30;;;;;;;4.30;100.00;100908.28;5114020;28;20023;-49
2023/12/14 01:36:25;;;;;;;0.30;0.30;;;;;;;4.29;100.00;100912.47;5112883;28;20023;-45
2023/12/14 01:38:50;;;;;;;0.30;0.30;;;;;;;4.27;100.00;100911.53;5114052;28;20032;-49
2023/12/14 01:41:16;;;;;;;0.40;0.40;;;;;;;4.25;100.00;100915.66;5113287;28;20030;-48
2023/12/14 01:43:41;;;;;;;0.30;0.30;;;;;;;4.25;100.00;100919.91;5113319;28;20028;-49
2023/12/14 01:46:06;;;;;;;0.38;0.38;;;;;;;4.23;100.00;100919.78;5113905;28;20024;-46
2023/12/14 01:48:32;;;;;;;0.32;0.32;;;;;;;4.23;100.00;100930.00;5112878;28;20116;-48
2023/12/14 01:50:57;;;;;;;0.40;0.40;;;;;;;4.26;100.00;100936.94;5113559;28;20034;-47
2023/12/14 01:53:22;;;;;;;0.30;0.30;;;;;;;4.26;100.00;100939.50;5113676;28;20039;-47
2023/12/14 01:55:49;;;;;;;0.38;0.38;;;;;;;4.25;100.00;100950.50;5113540;28;20130;-44
2023/12/14 01:58:14;;;;;;;0.40;0.40;;;;;;;4.25;100.00;100964.13;5112750;28;20439;-49
2023/12/14 02:00:43;;;;;;;0.40;0.40;;;;;;;4.23;100.00;100963.16;5113666;28;20520;-47
2023/12/14 02:03:09;;;;;;;0.40;0.40;;;;;;;4.22;100.00;100971.63;5112537;28;20471;-49
2023/12/14 02:05:34;;;;;;;0.30;0.30;;;;;;;4.20;100.00;100968.09;5113857;28;20034;-49
2023/12/14 02:07:59;;;;;;;0.30;0.30;;;;;;;4.21;100.00;100974.97;5113525;28;20034;-49
2023/12/14 02:10:25;;;;;;;0.30;0.30;;;;;;;4.23;100.00;100975.91;5112082;28;20115;-45
2023/12/14 02:12:50;;;;;;;0.30;0.30;;;;;;;4.21;100.00;100980.06;5113432;28;20426;-48
2023/12/14 02:15:15;;;;;;;0.40;0.40;;;;;;;4.21;100.00;100984.25;5113131;28;20050;-47
2023/12/14 02:17:41;;;;;;;0.40;0.40;;;;;;;4.19;100.00;100981.63;5112577;28;20030;-48
2023/12/14 02:20:06;;;;;;;0.30;0.30;;;;;;;4.20;100.00;101002.94;5113200;28;20024;-47
2023/12/14 02:22:53;;;;;;;0.30;0.30;;;;;;;4.22;100.00;101009.91;5113181;28;20023;-49
2023/12/14 02:25:20;;;;;;;0.40;0.40;;;;;;;4.20;100.00;101008.91;5112104;28;20495;-46
2023/12/14 02:27:45;;;;;;;0.40;0.40;;;;;;;4.18;100.00;101015.59;5113375;28;20028;-48
2023/12/14 02:30:12;;;;;;;0.40;0.40;;;;;;;4.18;100.00;101015.59;5112714;28;20383;-49
2023/12/14 02:32:38;;;;;;;0.40;0.40;;;;;;;4.20;100.00;101018.25;5112565;28;20483;-50
2023/12/14 02:35:04;;;;;;;0.35;0.35;;;;;;;4.19;100.00;101025.00;5113154;28;20521;-48
2023/12/14 02:37:29;;;;;;;0.40;0.40;;;;;;;4.21;100.00;101025.97;5112645;28;20031;-46
2023/12/14 02:39:55;;;;;;;0.30;0.30;;;;;;;4.20;100.00;101028.44;5112701;28;20100;-47
2023/12/14 02:42:20;;;;;;;0.30;0.30;;;;;;;4.20;100.00;101028.44;5112716;28;20498;-45
2023/12/14 02:44:46;;;;;;;0.40;0.40;;;;;;;4.17;100.00;101038.47;5112755;28;20031;-46
2023/12/14 02:47:12;;;;;;;0.22;0.22;;;;;;;4.12;100.00;101039.06;5112469;28;20019;-48
2023/12/14 02:49:37;;;;;;;0.30;0.30;;;;;;;4.12;100.00;101043.31;5112878;28;20448;-48
2023/12/14 02:52:03;;;;;;;0.30;0.30;;;;;;;4.10;100.00;101043.19;5112881;28;20032;-46
2023/12/14 02:54:28;;;;;;;0.32;0.32;;;;;;;4.09;100.00;101050.75;5112056;28;20032;-48
2023/12/14 02:56:53;;;;;;;0.30;0.30;;;;;;;4.08;100.00;101054.09;5112997;28;20019;-47
2023/12/14 02:59:19;;;;;;;0.30;0.30;;;;;;;4.07;100.00;101057.47;5111930;28;20028;-46
2023/12/14 03:01:44;;;;;;;0.35;0.35;;;;;;;4.07;100.00;101060.00;5113146;28;20043;-49
2023/12/14 03:04:09;;;;;;;0.30;0.30;;;;;;;4.08;100.00;101066.84;5112793;28;20024;-44
2023/12/14 03:06:34;;;;;;;0.30;0.30;;;;;;;4.07;100.00;101067.66;5112139;28;20433;-45
2023/12/14 03:09:00;;;;;;;0.30;0.30;;;;;;;4.05;100.00;101075.19;5112717;28;20031;-49
2023/12/14 03:11:25;;;;;;;0.30;0.30;;;;;;;4.05;100.00;101069.22;5112532;28;20467;-50
2023/12/14 03:13:51;;;;;;;0.40;0.40;;;;;;;4.03;100.00;101075.91;5112019;28;20066;-49
2023/12/14 03:16:16;;;;;;;0.40;0.40;;;;;;;4.02;100.00;101084.38;5116342;28;20084;-48
2023/12/14 03:18:42;;;;;;;0.30;0.30;;;;;;;4.01;100.00;101087.69;5116868;28;20027;-48
2023/12/14 03:21:09;;;;;;;0.30;0.30;;;;;;;4.00;100.00;101086.78;5116050;28;20055;-47
2023/12/14 03:23:34;;;;;;;0.40;0.40;;;;;;;4.01;100.00;101092.78;5116516;28;20028;-48
2023/12/14 03:25:59;;;;;;;0.30;0.30;;;;;;;4.01;100.00;101090.25;5116877;28;20036;-48
2023/12/14 03:28:24;;;;;;;0.30;0.30;;;;;;;4.01;100.00;101103.88;5115451;28;20015;-47
2023/12/14 03:30:50;;;;;;;0.30;0.30;;;;;;;3.98;100.00;101092.59;5116689;28;20023;-47
2023/12/14 03:33:15;;;;;;;0.40;0.40;;;;;;;3.98;100.00;101095.13;5116099;28;20387;-46
2023/12/14 03:35:41;;;;;;;0.40;0.40;;;;;;;3.98;100.00;101095.13;5115972;28;20020;-48
2023/12/14 03:38:07;;;;;;;0.35;0.35;;;;;;;3.98;100.00;101097.69;5116460;28;20042;-50
2023/12/14 03:40:33;;;;;;;0.40;0.40;;;;;;;3.96;100.00;101095.06;5115899;28;20031;-46
2023/12/14 03:42:58;;;;;;;0.32;0.32;;;;;;;3.98;100.00;101102.78;5115713;28;20019;-49
2023/12/14 03:45:23;;;;;;;0.30;0.30;;;;;;;3.97;100.00;101107.03;5115862;28;20032;-48
2023/12/14 03:47:49;;;;;;;0.30;0.30;;;;;;;3.97;100.00;101109.56;5115903;28;20024;-46
2023/12/14 03:50:14;;;;;;;0.40;0.40;;;;;;;3.97;100.00;101106.16;5115036;28;20479;-49
2023/12/14 03:52:40;;;;;;;0.40;0.40;;;;;;;3.98;100.00;101118.09;5116244;28;20040;-48
2023/12/14 03:55:06;;;;;;;0.25;0.25;;;;;;;3.97;100.00;101124.88;5115885;28;20024;-47
2023/12/14 03:57:31;;;;;;;0.30;0.30;;;;;;;3.98;100.00;101125.75;5115233;28;20379;-47
2023/12/14 03:59:56;;;;;;;0.40;0.40;;;;;;;3.97;100.00;101129.13;5115850;28;20022;-48
2023/12/14 04:02:22;;;;;;;0.38;0.38;;;;;;;3.94;100.00;101123.03;5115442;28;20020;-48
2023/12/14 04:04:47;;;;;;;0.40;0.40;;;;;;;3.93;100.00;101123.81;5115235;28;20024;-46
2023/12/14 04:07:13;;;;;;;0.40;0.40;;;;;;;3.93;100.00;101125.50;5115492;28;20031;-48
2023/12/14 04:09:38;;;;;;;0.30;0.30;;;;;;;3.94;100.00;101130.66;5114927;28;20032;-48
2023/12/14 04:12:04;;;;;;;0.30;0.30;;;;;;;3.94;100.00;101132.34;5115467;28;20039;-49
2023/12/14 04:14:29;;;;;;;0.40;0.40;;;;;;;3.94;100.00;101135.78;5115397;28;20102;-46
2023/12/14 04:16:55;;;;;;;0.30;0.30;;;;;;;3.93;100.00;101128.91;5114945;28;20051;-47
2023/12/14 04:19:21;;;;;;;0.30;0.30;;;;;;;3.94;100.00;101130.66;5115371;28;20026;-47
2023/12/14 04:21:47;;;;;;;0.30;0.30;;;;;;;3.92;100.00;101139.00;5115344;28;20035;-48
2023/12/14 04:24:12;;;;;;;0.30;0.30;;;;;;;3.90;100.00;101136.38;5114431;28;20030;-46
2023/12/14 04:26:38;;;;;;;0.40;0.40;;;;;;;3.92;100.00;101149.22;5114164;28;20024;-50
2023/12/14 04:29:03;;;;;;;0.40;0.40;;;;;;;3.91;100.00;101150.91;5115148;28;20034;-49
2023/12/14 04:31:28;;;;;;;0.40;0.40;;;;;;;3.90;100.00;101156.78;5114520;28;20034;-45
2023/12/14 04:33:54;;;;;;;0.40;0.40;;;;;;;3.89;100.00;101164.34;5115305;28;20028;-45
2023/12/14 04:36:19;;;;;;;0.40;0.40;;;;;;;3.90;100.00;101166.97;5114532;28;20123;-47
2023/12/14 04:38:46;;;;;;;0.40;0.40;;;;;;;3.89;100.00;101182.19;5114682;28;20066;-47
2023/12/14 04:41:12;;;;;;;0.40;0.40;;;;;;;3.89;100.00;101185.59;5114786;28;20031;-47
2023/12/14 04:43:37;;;;;;;0.22;0.22;;;;;;;3.88;100.00;101186.38;5114807;28;20024;-45
2023/12/14 04:46:02;;;;;;;0.35;0.35;;;;;;;3.88;100.00;101186.38;5114786;28;20368;-47
2023/12/14 04:48:28;;;;;;;0.38;0.38;;;;;;;3.89;100.00;101198.34;5114582;28;20100;-45
2023/12/14 04:50:53;;;;;;;0.40;0.40;;;;;;;3.89;100.00;101206.00;5114849;28;20028;-46
2023/12/14 04:53:18;;;;;;;0.30;0.30;;;;;;;3.89;100.00;101205.13;5113957;28;20019;-45
2023/12/14 04:55:43;;;;;;;0.30;0.30;;;;;;;3.89;100.00;101218.75;5114865;28;20023;-49
2023/12/14 04:58:09;;;;;;;0.40;0.40;;;;;;;3.89;100.00;101207.69;5114373;28;20024;-45
2023/12/14 05:00:34;;;;;;;0.35;0.35;;;;;;;3.89;100.00;101208.56;5102737;28;20032;-49
2023/12/14 05:02:59;;;;;;;0.40;0.40;;;;;;;3.89;100.00;101216.22;5094288;28;20077;-46
2023/12/14 05:05:25;;;;;;;0.40;0.40;;;;;;;3.88;100.00;101224.63;5100134;28;20035;-47
2023/12/14 05:07:50;;;;;;;0.40;0.40;;;;;;;3.89;100.00;101236.59;5114268;28;20068;-45
2023/12/14 05:10:16;;;;;;;0.30;0.30;;;;;;;3.89;100.00;101240.84;5113889;28;20023;-46
2023/12/14 05:12:41;;;;;;;0.38;0.38;;;;;;;3.88;100.00;101245.03;5114183;28;20032;-46
2023/12/14 05:15:07;;;;;;;0.32;0.32;;;;;;;3.91;100.00;101254.53;5113786;28;20030;-46
2023/12/14 05:17:32;;;;;;;0.30;0.30;;;;;;;3.89;100.00;101254.47;5114234;28;20034;-45
2023/12/14 05:19:58;;;;;;;0.40;0.40;;;;;;;3.89;100.00;101257.00;5113698;28;20434;-46
2023/12/14 05:22:23;;;;;;;0.30;0.30;;;;;;;3.91;100.00;101262.19;5113949;28;20027;-49
2023/12/14 05:24:49;;;;;;;0.40;0.40;;;;;;;3.94;100.00;101270.06;5114215;28;20107;-46
2023/12/14 05:27:14;;;;;;;0.40;0.40;;;;;;;3.94;100.00;101272.63;5113087;28;20439;-48
2023/12/14 05:29:39;;;;;;;0.30;0.30;;;;;;;3.94;100.00;101276.03;5114264;28;20110;-46
2023/12/14 05:32:05;;;;;;;0.30;0.30;;;;;;;3.95;100.00;101284.56;5114044;28;20490;-48
2023/12/14 05:34:30;;;;;;;0.30;0.30;;;;;;;3.95;100.00;101290.56;5113157;28;20027;-47
2023/12/14 05:36:56;;;;;;;0.30;0.30;;;;;;;3.95;100.00;101295.66;5114032;28;20096;-47
2023/12/14 05:39:21;;;;;;;0.30;0.30;;;;;;;3.95;100.00;101293.09;5113724;28;20028;-48
2023/12/14 05:41:46;;;;;;;0.30;0.30;;;;;;;3.95;100.00;101299.84;5113135;28;20035;-48
2023/12/14 05:44:12;;;;;;;0.40;0.40;;;;;;;3.94;100.00;101314.28;5113519;28;20497;-48
2023/12/14 05:46:38;;;;;;;0.40;0.40;;;;;;;3.93;100.00;101311.66;5113727;28;20039;-45
2023/12/14 05:49:03;;;;;;;0.40;0.40;;;;;;;3.93;100.00;101325.25;5113128;28;20556;-47
2023/12/14 05:51:30;;;;;;;0.40;0.40;;;;;;;3.92;100.00;101330.28;5113445;28;20034;-49
2023/12/14 05:53:55;;;;;;;0.32;0.32;;;;;;;3.93;100.00;101345.66;5113334;28;20471;-48
2023/12/14 05:56:20;;;;;;;0.40;0.40;;;;;;;3.92;100.00;101343.91;5112841;28;20027;-48
2023/12/14 05:58:46;;;;;;;0.40;0.40;;;;;;;3.94;100.00;101352.53;5113806;28;20027;-48
2023/12/14 06:01:11;;;;;;;0.30;0.30;;;;;;;3.95;100.00;101353.41;5113204;28;20046;-47
2023/12/14 06:03:36;;;;;;;0.40;0.40;;;;;;;3.97;100.00;101356.09;5113153;28;20023;-48
2023/12/14 06:06:02;;;;;;;0.32;0.32;;;;;;;3.97;100.00;101363.75;5113665;28;20073;-47
2023/12/14 06:08:27;;;;;;;0.30;0.30;;;;;;;3.97;100.00;101368.84;5112604;28;20473;-45
2023/12/14 06:10:52;;;;;;;0.38;0.38;;;;;;;3.97;100.00;101369.72;5112876;28;20475;-48
2023/12/14 06:13:17;;;;;;;0.40;0.40;;;;;;;3.98;100.00;101368.03;5113011;28;20027;-49
2023/12/14 06:15:43;;;;;;;0.40;0.40;;;;;;;3.97;100.00;101362.06;5113761;28;20528;-47
2023/12/14 06:18:08;;;;;;;0.32;0.32;;;;;;;3.95;100.00;101369.63;5112805;28;20042;-46
2023/12/14 06:20:33;;;;;;;0.40;0.40;;;;;;;3.94;100.00;101370.38;5113287;28;20148;-49
2023/12/14 06:22:58;;;;;;;0.30;0.30;;;;;;;3.95;100.00;101379.81;5113032;28;20027;-46
2023/12/14 06:25:24;;;;;;;0.40;0.40;;;;;;;3.93;100.00;101380.50;5112466;28;20068;-47
2023/12/14 06:27:49;;;;;;;0.40;0.40;;;;;;;3.94;100.00;101393.34;5113178;28;20105;-48
2023/12/14 06:30:15;;;;;;;0.40;0.40;;;;;;;3.94;100.00;101397.56;5112044;28;20055;-47
2023/12/14 06:32:40;;;;;;;0.38;0.38;;;;;;;3.93;100.00;101404.31;5113366;28;20077;-46
2023/12/14 06:35:06;;;;;;;0.30;0.30;;;;;;;3.92;100.00;101405.09;5113279;28;20022;-45
2023/12/14 06:37:31;;;;;;;0.40;0.40;;;;;;;3.90;100.00;101405.78;5112128;28;20047;-48
2023/12/14 06:39:56;;;;;;;0.40;0.40;;;;;;;3.88;100.00;101405.69;5113130;28;20027;-48
2023/12/14 06:42:21;;;;;;;0.40;0.40;;;;;;;3.87;100.00;101415.78;5112673;28;20382;-47
2023/12/14 06:44:47;;;;;;;0.40;0.40;;;;;;;3.86;100.00;101411.47;5112503;28;20024;-47
2023/12/14 06:47:13;;;;;;;0.40;0.40;;;;;;;3.86;100.00;101420.03;5113004;28;20023;-48
2023/12/14 06:49:40;;;;;;;0.40;0.40;;;;;;;3.84;100.00;101424.13;5113997;28;20521;-49
2023/12/14 06:52:06;;;;;;;0.38;0.38;;;;;;;3.86;100.00;101421.66;5116886;28;20057;-46
2023/12/14 06:54:32;;;;;;;0.30;0.30;;;;;;;3.85;100.00;101423.34;5117090;28;20139;-48
2023/12/14 06:56:57;;;;;;;0.35;0.35;;;;;;;3.84;100.00;101426.66;5116766;28;20800;-47
2023/12/14 06:59:22;;;;;;;0.40;0.40;;;;;;;3.84;100.00;101436.88;5116427;28;20023;-46
2023/12/14 07:01:48;;;;;;;0.30;0.30;;;;;;;3.86;100.00;101442.97;5117007;28;20051;-48
2023/12/14 07:04:13;;;;;;;0.40;0.40;;;;;;;3.83;100.00;101442.75;5116579;28;20028;-47
2023/12/14 07:06:39;;;;;;;0.40;0.40;;;;;;;3.82;100.00;101451.16;5116429;28;20019;-48
2023/12/14 07:09:05;;;;;;;0.32;0.32;;;;;;;3.78;100.00;101444.09;5116795;28;20105;-46
2023/12/14 07:11:30;;;;;;;0.30;0.30;;;;;;;3.77;100.00;101455.09;5116358;28;20501;-47
2023/12/14 07:13:55;;;;;;;0.40;0.40;;;;;;;3.77;100.00;101460.19;5116522;28;20019;-49
2023/12/14 07:16:21;;;;;;;0.40;0.40;;;;;;;3.75;100.00;101465.19;5116412;28;20160;-45
2023/12/14 07:18:46;;;;;;;0.40;0.40;;;;;;;3.74;100.00;101462.53;5116507;28;20034;-48
2023/12/14 07:21:12;;;;;;;0.40;0.40;;;;;;;3.72;100.00;101472.63;5115867;28;20023;-47
2023/12/14 07:23:37;;;;;;;0.40;0.40;;;;;;;3.73;100.00;101484.63;5116654;28;20505;-47
2023/12/14 07:26:03;;;;;;;0.40;0.40;;;;;;;3.70;100.00;101493.72;5116298;28;20449;-46
2023/12/14 07:28:29;;;;;;;0.40;0.40;;;;;;;3.70;100.00;101502.22;5115851;28;20448;-48
2023/12/14 07:30:54;;;;;;;0.32;0.32;;;;;;;3.71;100.00;101508.22;5116176;28;20028;-49
2023/12/14 07:33:20;;;;;;;0.40;0.40;;;;;;;3.69;100.00;101512.34;5116028;28;20103;-49
2023/12/14 07:35:45;;;;;;;0.40;0.40;;;;;;;3.69;100.00;101509.78;5115962;28;20463;-49
2023/12/14 07:38:11;;;;;;;0.40;0.40;;;;;;;3.69;100.00;101518.31;5116014;28;20471;-48
2023/12/14 07:40:38;;;;;;;0.32;0.32;;;;;;;3.67;100.00;101518.97;5115368;28;20103;-45
2023/12/14 07:43:03;;;;;;;0.30;0.30;;;;;;;3.68;100.00;101523.31;5116508;28;20016;-48
2023/12/14 07:45:29;;;;;;;0.40;0.40;;;;;;;3.69;100.00;101522.53;5116127;28;20038;-45
2023/12/14 07:47:54;;;;;;;0.40;0.40;;;;;;;3.66;100.00;101525.75;5115392;28;20016;-46
2023/12/14 07:50:19;;;;;;;0.40;0.40;;;;;;;3.66;100.00;101525.75;5115462;28;20491;-47
2023/12/14 07:52:45;;;;;;;0.40;0.40;;;;;;;3.66;100.00;101540.19;5116024;28;20107;-46
2023/12/14 07:55:10;;;;;;;0.40;0.40;;;;;;;3.66;100.00;101545.28;5114835;28;20020;-46
2023/12/14 07:57:35;;;;;;;0.40;0.40;;;;;;;3.67;100.00;101544.47;5115573;28;20028;-45
2023/12/14 08:00:01;;;;;;;0.40;0.40;;;;;;;3.66;100.00;101546.16;5115461;28;20360;-44
2023/12/14 08:02:26;;;;;;;0.30;0.30;;;;;;;3.66;100.00;101563.13;5115108;28;20467;-44
2023/12/14 08:04:51;;;;;;;0.40;0.40;;;;;;;3.66;100.00;101558.88;5115572;28;20064;-47
2023/12/14 08:07:17;;;;;;;0.40;0.40;;;;;;;3.64;100.00;101560.44;5115242;28;20051;-43
2023/12/14 08:09:43;;;;;;;0.40;0.40;;;;;;;3.64;100.00;101560.44;5115050;28;20471;-43
2023/12/14 08:12:08;;;;;;;0.30;0.30;;;;;;;3.62;100.00;101562.00;5115618;28;20062;-43
2023/12/14 08:14:34;;;;;;;0.30;0.30;;;;;;;3.61;100.00;101581.50;5114805;28;20024;-47
2023/12/14 08:16:59;;;;;;;0.30;0.30;;;;;;;3.61;100.00;101575.53;5114957;28;20027;-48
2023/12/14 08:19:25;;;;;;;0.20;0.20;;;;;;;3.61;100.00;101570.44;5115097;28;20024;-44
2023/12/14 08:21:50;;;;;;;0.40;0.40;;;;;;;3.61;100.00;101571.31;5115309;28;20146;-44
2023/12/14 08:24:15;;;;;;;0.30;0.30;;;;;;;3.61;100.00;101585.72;5114645;28;20023;-45
2023/12/14 08:26:41;;;;;;;0.40;0.40;;;;;;;3.59;100.00;101585.63;5115576;28;20026;-44
2023/12/14 08:29:06;;;;;;;0.40;0.40;;;;;;;3.58;100.00;101590.63;5115059;28;20050;-44
2023/12/14 08:31:31;;;;;;;0.40;0.40;;;;;;;3.61;100.00;101607.00;5114621;28;20038;-45
2023/12/14 08:33:57;;;;;;;0.30;0.30;;;;;;;3.60;100.00;101604.34;5115193;28;20067;-45
2023/12/14 08:36:22;;;;;;;0.40;0.40;;;;;;;3.61;100.00;101619.75;5114667;28;20027;-44
2023/12/14 08:38:47;;;;;;;0.40;0.40;;;;;;;3.63;100.00;101619.88;5114534;28;20030;-43
2023/12/14 08:41:14;;;;;;;0.30;0.30;;;;;;;3.61;100.00;101617.19;5114645;28;20069;-43
2023/12/14 08:43:39;;;;;;;0.30;0.30;;;;;;;3.62;100.00;101624.06;5114639;28;20359;-43
2023/12/14 08:46:05;;;;;;;0.40;0.40;;;;;;;3.60;100.00;101625.63;5114625;28;20022;-44
2023/12/14 08:48:30;;;;;;;0.30;0.30;;;;;;;3.60;100.00;101635.84;5114685;28;20043;-47
2023/12/14 08:50:55;;;;;;;0.40;0.40;;;;;;;3.60;100.00;101646.03;5114228;28;20031;-45
2023/12/14 08:53:21;;;;;;;0.38;0.38;;;;;;;3.59;100.00;101649.34;5114535;28;20050;-45
2023/12/14 08:55:46;;;;;;;0.40;0.40;;;;;;;3.59;100.00;101649.34;5114860;28;20024;-47
2023/12/14 08:58:11;;;;;;;0.40;0.40;;;;;;;3.59;100.00;101643.34;5113698;28;20027;-44
2023/12/14 09:00:38;;;;;;;0.32;0.32;;;;;;;3.59;100.00;101643.34;5114993;28;20020;-47
2023/12/14 09:03:03;;;;;;;0.40;0.40;;;;;;;3.57;100.00;101645.78;5114492;28;20024;-46
2023/12/14 09:05:28;;;;;;;0.38;0.38;;;;;;;3.58;100.00;101647.56;5113927;28;20189;-45
2023/12/14 09:07:56;;;;;;;0.40;0.40;;;;;;;3.60;100.00;101650.22;5114588;28;20024;-45
2023/12/14 09:10:21;;;;;;;0.40;0.40;;;;;;;3.60;100.00;101666.44;5113839;28;20029;-48
2023/12/14 09:12:47;;;;;;;0.32;0.32;;;;;;;3.59;100.00;101668.84;5113157;28;20107;-48
2023/12/14 09:15:12;;;;;;;0.40;0.40;;;;;;;3.62;100.00;101669.06;5114355;28;20027;-46
2023/12/14 09:17:37;;;;;;;0.40;0.40;;;;;;;3.65;100.00;101678.59;5113894;28;20020;-44
2023/12/14 09:20:04;;;;;;;0.40;0.40;;;;;;;3.70;100.00;101687.47;5113840;28;20087;-45
2023/12/14 09:22:30;;;;;;;0.40;0.40;;;;;;;3.70;100.00;101693.44;5114020;28;20390;-49
2023/12/14 09:24:55;;;;;;;0.40;0.40;;;;;;;3.71;100.00;101704.53;5113876;28;20107;-45
2023/12/14 09:27:21;;;;;;;0.40;0.40;;;;;;;3.72;100.00;101703.75;5113479;28;20352;-45
2023/12/14 09:29:47;;;;;;;0.38;0.38;;;;;;;3.73;100.00;101708.06;5114161;28;20038;-43
2023/12/14 09:32:12;;;;;;;0.40;0.40;;;;;;;3.75;100.00;101711.63;5113102;28;20501;-44
2023/12/14 09:34:38;;;;;;;0.30;0.30;;;;;;;3.76;100.00;101716.81;5113682;28;20031;-47
2023/12/14 09:37:03;;;;;;;0.40;0.40;;;;;;;3.79;100.00;101713.59;5113670;28;20107;-42
2023/12/14 09:39:28;;;;;;;0.40;0.40;;;;;;;3.78;100.00;101727.13;5092938;28;20020;-45
2023/12/14 09:42:04;;;;;;;0.40;0.40;;;;;;;3.78;100.00;101728.03;5093196;28;20050;-42
2023/12/14 09:44:30;;;;;;;0.40;0.40;;;;;;;3.77;100.00;101730.44;5092528;28;20039;-45
2023/12/14 09:46:58;;;;;;;0.35;0.35;;;;;;;3.77;100.00;101735.53;5092412;28;20016;-45
2023/12/14 09:49:29;;;;;;;0.30;0.30;;;;;;;3.72;100.00;101741.97;5092184;28;20044;-45
2023/12/14 09:51:54;;;;;;;0.40;0.40;;;;;;;3.67;100.00;101743.31;5093225;28;20028;-46
2023/12/14 09:54:19;;;;;;;0.30;0.30;;;;;;;3.65;100.00;101748.31;5091469;28;20506;-42
2023/12/14 09:56:46;;;;;;;0.40;0.40;;;;;;;3.62;100.00;101756.63;5092278;28;20371;-43
2023/12/14 09:59:12;;;;;;;0.30;0.30;;;;;;;3.59;100.00;101756.41;5092134;28;20073;-44
2023/12/14 10:01:37;;;;;;;0.40;0.40;;;;;;;3.61;100.00;101764.16;5092620;28;20383;-45
2023/12/14 10:04:11;;;;;;;0.40;0.40;;;;;;;3.62;100.00;101771.91;5093081;28;20027;-45
2023/12/14 10:06:38;;;;;;;0.30;0.30;;;;;;;3.62;100.00;101782.13;5092638;28;20024;-44
2023/12/14 10:09:13;;;;;;;0.40;0.40;;;;;;;3.62;100.00;101786.34;5092753;28;20039;-47
2023/12/14 10:11:38;;;;;;;0.30;0.30;;;;;;;3.64;100.00;101787.31;5092799;28;20024;-44
2023/12/14 10:14:20;;;;;;;0.32;0.32;;;;;;;3.67;100.00;101789.19;5093015;28;20036;-45
2023/12/14 10:16:47;;;;;;;0.40;0.40;;;;;;;3.65;100.00;101798.41;5092231;28;20084;-45
2023/12/14 10:19:12;;;;;;;0.30;0.30;;;;;;;3.66;100.00;101797.66;5092660;28;20031;-45
2023/12/14 10:21:37;;;;;;;0.30;0.30;;;;;;;3.63;100.00;101799.19;5091969;28;20483;-48
2023/12/14 10:24:03;;;;;;;0.40;0.40;;;;;;;3.70;100.00;101802.19;5091990;28;20039;-46
2023/12/14 10:26:28;;;;;;;0.40;0.40;;;;;;;3.72;100.00;101803.16;5092751;28;20059;-45
2023/12/14 10:28:53;;;;;;;0.40;0.40;;;;;;;3.75;100.00;101804.28;5091137;28;20020;-46
2023/12/14 10:31:19;;;;;;;0.40;0.40;;;;;;;3.79;100.00;101810.50;5090868;28;20036;-44
2023/12/14 10:33:45;;;;;;;0.40;0.40;;;;;;;3.79;100.00;101815.59;5091984;28;20025;-44
2023/12/14 10:36:13;;;;;;;0.40;0.40;;;;;;;3.82;100.00;101807.28;5092125;28;20424;-45
2023/12/14 10:38:38;;;;;;;0.30;0.30;;;;;;;3.86;100.00;101807.63;5091951;28;20020;-49
2023/12/14 10:41:05;;;;;;;0.30;0.30;;;;;;;3.90;100.00;101807.06;5092915;28;20375;-45
2023/12/14 10:43:32;;;;;;;0.30;0.30;;;;;;;3.89;100.00;101804.41;5091736;28;20028;-48
2023/12/14 10:45:59;;;;;;;0.40;0.40;;;;;;;3.92;100.00;101804.63;5092671;28;20048;-48
2023/12/14 10:48:24;;;;;;;0.35;0.35;;;;;;;3.99;100.00;101811.97;5092168;28;20104;-46
2023/12/14 10:50:51;;;;;;;0.40;0.40;;;;;;;4.02;100.00;101813.84;5092257;28;20067;-44
2023/12/14 10:53:17;;;;;;;0.40;0.40;;;;;;;4.02;100.00;101808.75;5091836;28;20028;-46
2023/12/14 10:55:44;;;;;;;0.40;0.40;;;;;;;4.04;100.00;101815.72;5092455;28;20031;-46
2023/12/14 10:58:11;;;;;;;0.30;0.30;;;;;;;4.12;100.00;101824.81;5091926;28;20028;-47
2023/12/14 11:00:37;;;;;;;0.30;0.30;;;;;;;4.14;100.00;101824.91;5092467;28;20036;-47
2023/12/14 11:03:04;;;;;;;0.40;0.40;;;;;;;4.17;100.00;101830.25;5092533;28;20043;-45
2023/12/14 11:05:33;;;;;;;0.40;0.40;;;;;;;4.29;100.00;101830.22;5091740;28;20391;-49
2023/12/14 11:08:12;;;;;;;0.38;0.38;;;;;;;4.36;100.00;101826.44;5092239;28;20051;-44
2023/12/14 11:10:55;;;;;;;0.30;0.30;;;;;;;4.41;100.00;101830.19;5091984;28;20024;-43
2023/12/14 11:13:21;;;;;;;0.30;0.30;;;;;;;4.40;100.00;101828.41;5091829;28;20028;-48
2023/12/14 11:15:51;;;;;;;0.40;0.40;;;;;;;4.48;100.00;101834.06;5092501;28;20040;-47
2023/12/14 11:18:25;;;;;;;0.30;0.30;;;;;;;4.57;100.00;101839.81;5091744;28;20428;-49